sensor_id;sensor_type;location;lat;lon;timestamp;pressure;altitude;pressure_sealevel;temperature;humidity
8298;BME280;4187;42.778;23.242;2023-04-26T00:01:33;94370.50;;;10.12;100.00
8298;BME280;4187;42.778;23.242;2023-04-26T00:04:01;94368.22;;;10.17;100.00
8298;BME280;4187;42.778;23.242;2023-04-26T00:06:27;94355.88;;;10.17;100.00
8298;BME280;4187;42.778;23.242;2023-04-26T00:08:54;94359.34;;;10.26;100.00
8298;BME280;4187;42.778;23.242;2023-04-26T00:11:22;94355.22;;;10.24;100.00
8298;BME280;4187;42.778;23.242;2023-04-26T00:13:49;94348.47;;;10.21;100.00
8298;BME280;4187;42.778;23.242;2023-04-26T00:16:16;94344.50;;;10.17;100.00
8298;BME280;4187;42.778;23.242;2023-04-26T00:18:44;94341.72;;;10.18;100.00
8298;BME280;4187;42.778;23.242;2023-04-26T00:21:11;94333.09;;;10.08;100.00
8298;BME280;4187;42.778;23.242;2023-04-26T00:23:38;94323.38;;;9.93;100.00
8298;BME280;4187;42.778;23.242;2023-04-26T00:26:05;94332.75;;;9.79;100.00
8298;BME280;4187;42.778;23.242;2023-04-26T00:28:33;94325.03;;;9.78;100.00
8298;BME280;4187;42.778;23.242;2023-04-26T00:31:00;94300.81;;;9.66;100.00
8298;BME280;4187;42.778;23.242;2023-04-26T00:33:27;94322.72;;;9.83;100.00
8298;BME280;4187;42.778;23.242;2023-04-26T00:35:55;94285.66;;;9.60;100.00
8298;BME280;4187;42.778;23.242;2023-04-26T00:38:21;94325.88;;;9.86;100.00
8298;BME280;4187;42.778;23.242;2023-04-26T00:41:06;94327.50;;;9.79;100.00
8298;BME280;4187;42.778;23.242;2023-04-26T00:43:35;94341.69;;;9.86;100.00
8298;BME280;4187;42.778;23.242;2023-04-26T00:46:02;94329.97;;;9.81;100.00
8298;BME280;4187;42.778;23.242;2023-04-26T00:48:29;94318.94;;;9.77;100.00
8298;BME280;4187;42.778;23.242;2023-04-26T00:50:56;94336.72;;;9.83;100.00
8298;BME280;4187;42.778;23.242;2023-04-26T00:53:23;94332.28;;;9.92;100.00
8298;BME280;4187;42.778;23.242;2023-04-26T00:55:52;94338.72;;;9.89;100.00
8298;BME280;4187;42.778;23.242;2023-04-26T00:58:19;94341.50;;;9.80;100.00
8298;BME280;4187;42.778;23.242;2023-04-26T01:00:47;94338.53;;;9.75;100.00
8298;BME280;4187;42.778;23.242;2023-04-26T01:03:14;94339.47;;;9.66;100.00
8298;BME280;4187;42.778;23.242;2023-04-26T01:05:41;94332.06;;;9.61;100.00
8298;BME280;4187;42.778;23.242;2023-04-26T01:08:08;94320.03;;;9.50;100.00
8298;BME280;4187;42.778;23.242;2023-04-26T01:10:35;94323.63;;;9.41;100.00
8298;BME280;4187;42.778;23.242;2023-04-26T01:13:02;94337.28;;;9.37;100.00
8298;BME280;4187;42.778;23.242;2023-04-26T01:15:29;94309.69;;;8.99;100.00
8298;BME280;4187;42.778;23.242;2023-04-26T01:17:59;94317.06;;;8.95;100.00
8298;BME280;4187;42.778;23.242;2023-04-26T01:20:30;94333.41;;;9.07;100.00
8298;BME280;4187;42.778;23.242;2023-04-26T01:22:58;94333.50;;;8.97;100.00
8298;BME280;4187;42.778;23.242;2023-04-26T01:25:25;94332.78;;;8.79;100.00
8298;BME280;4187;42.778;23.242;2023-04-26T01:27:52;94329.31;;;8.79;100.00
8298;BME280;4187;42.778;23.242;2023-04-26T01:30:19;94331.66;;;8.82;100.00
8298;BME280;4187;42.778;23.242;2023-04-26T01:32:45;94338.56;;;8.83;100.00
8298;BME280;4187;42.778;23.242;2023-04-26T01:35:12;94336.06;;;8.81;100.00
8298;BME280;4187;42.778;23.242;2023-04-26T01:37:39;94351.09;;;8.89;100.00
8298;BME280;4187;42.778;23.242;2023-04-26T01:40:08;94344.97;;;8.80;100.00
8298;BME280;4187;42.778;23.242;2023-04-26T01:42:35;94347.50;;;8.64;100.00
8298;BME280;4187;42.778;23.242;2023-04-26T01:45:03;94354.53;;;8.56;100.00
8298;BME280;4187;42.778;23.242;2023-04-26T01:47:30;94351.88;;;8.56;100.00
8298;BME280;4187;42.778;23.242;2023-04-26T01:49:56;94351.09;;;8.63;100.00
8298;BME280;4187;42.778;23.242;2023-04-26T01:52:23;94353.44;;;8.66;100.00
8298;BME280;4187;42.778;23.242;2023-04-26T01:54:50;94355.44;;;8.72;100.00
8298;BME280;4187;42.778;23.242;2023-04-26T01:57:18;94341.69;;;8.78;100.00
8298;BME280;4187;42.778;23.242;2023-04-26T01:59:45;94340.22;;;8.84;100.00
8298;BME280;4187;42.778;23.242;2023-04-26T02:02:12;94337.59;;;8.84;100.00
8298;BME280;4187;42.778;23.242;2023-04-26T02:04:39;94330.84;;;8.89;100.00
8298;BME280;4187;42.778;23.242;2023-04-26T02:07:05;94321.34;;;8.88;100.00
8298;BME280;4187;42.778;23.242;2023-04-26T02:12:23;94317.22;;;8.86;100.00
8298;BME280;4187;42.778;23.242;2023-04-26T02:14:50;94294.28;;;8.70;100.00
8298;BME280;4187;42.778;23.242;2023-04-26T02:17:17;94304.88;;;8.86;100.00
8298;BME280;4187;42.778;23.242;2023-04-26T02:19:45;94258.41;;;8.61;100.00
8298;BME280;4187;42.778;23.242;2023-04-26T02:22:12;94297.63;;;8.80;100.00
8298;BME280;4187;42.778;23.242;2023-04-26T02:24:39;94294.50;;;8.85;100.00
8298;BME280;4187;42.778;23.242;2023-04-26T02:27:06;94294.34;;;8.78;100.00
8298;BME280;4187;42.778;23.242;2023-04-26T02:29:34;94300.09;;;8.90;100.00
8298;BME280;4187;42.778;23.242;2023-04-26T02:32:01;94302.28;;;8.94;100.00
8298;BME280;4187;42.778;23.242;2023-04-26T02:34:28;94308.81;;;8.82;100.00
8298;BME280;4187;42.778;23.242;2023-04-26T02:36:55;94312.34;;;8.73;100.00
8298;BME280;4187;42.778;23.242;2023-04-26T02:39:33;94319.06;;;8.68;100.00
8298;BME280;4187;42.778;23.242;2023-04-26T02:42:00;94316.50;;;8.76;100.00
8298;BME280;4187;42.778;23.242;2023-04-26T02:44:28;94324.44;;;8.84;100.00
8298;BME280;4187;42.778;23.242;2023-04-26T02:46:57;94327.06;;;8.84;100.00
8298;BME280;4187;42.778;23.242;2023-04-26T02:49:24;94332.16;;;8.85;100.00
8298;BME280;4187;42.778;23.242;2023-04-26T02:51:51;94316.69;;;8.82;100.00
8298;BME280;4187;42.778;23.242;2023-04-26T02:54:18;94315.56;;;8.85;100.00
8298;BME280;4187;42.778;23.242;2023-04-26T02:56:44;94320.66;;;8.86;100.00
8298;BME280;4187;42.778;23.242;2023-04-26T02:59:11;94307.16;;;8.89;100.00
8298;BME280;4187;42.778;23.242;2023-04-26T03:01:38;94290.25;;;8.84;100.00
8298;BME280;4187;42.778;23.242;2023-04-26T03:04:06;94245.56;;;8.58;100.00
8298;BME280;4187;42.778;23.242;2023-04-26T03:06:33;94297.00;;;8.86;100.00
8298;BME280;4187;42.778;23.242;2023-04-26T03:09:00;94299.25;;;8.81;100.00
8298;BME280;4187;42.778;23.242;2023-04-26T03:11:27;94293.94;;;8.73;100.00
8298;BME280;4187;42.778;23.242;2023-04-26T03:13:54;94280.63;;;8.67;100.00
8298;BME280;4187;42.778;23.242;2023-04-26T03:16:22;94287.38;;;8.69;100.00
8298;BME280;4187;42.778;23.242;2023-04-26T03:18:49;94279.78;;;8.66;100.00
8298;BME280;4187;42.778;23.242;2023-04-26T03:21:17;94282.91;;;8.62;100.00
8298;BME280;4187;42.778;23.242;2023-04-26T03:23:44;94286.81;;;8.58;100.00
8298;BME280;4187;42.778;23.242;2023-04-26T03:26:10;94283.69;;;8.54;100.00
8298;BME280;4187;42.778;23.242;2023-04-26T03:28:37;94285.69;;;8.60;100.00
8298;BME280;4187;42.778;23.242;2023-04-26T03:31:04;94281.25;;;8.61;100.00
8298;BME280;4187;42.778;23.242;2023-04-26T03:33:31;94285.19;;;8.57;100.00
8298;BME280;4187;42.778;23.242;2023-04-26T03:35:59;94284.34;;;8.56;100.00
8298;BME280;4187;42.778;23.242;2023-04-26T03:38:27;94287.59;;;8.50;100.00
8298;BME280;4187;42.778;23.242;2023-04-26T03:40:54;94253.50;;;8.32;100.00
8298;BME280;4187;42.778;23.242;2023-04-26T03:43:20;94298.34;;;8.57;100.00
8298;BME280;4187;42.778;23.242;2023-04-26T03:45:48;94292.91;;;8.58;100.00
8298;BME280;4187;42.778;23.242;2023-04-26T03:48:15;94308.19;;;8.63;100.00
8298;BME280;4187;42.778;23.242;2023-04-26T03:50:42;94315.13;;;8.64;100.00
8298;BME280;4187;42.778;23.242;2023-04-26T03:53:10;94317.13;;;8.70;100.00
8298;BME280;4187;42.778;23.242;2023-04-26T03:55:38;94310.38;;;8.67;100.00
8298;BME280;4187;42.778;23.242;2023-04-26T03:58:05;94323.56;;;8.75;100.00
8298;BME280;4187;42.778;23.242;2023-04-26T04:00:36;94325.91;;;8.78;100.00
8298;BME280;4187;42.778;23.242;2023-04-26T04:03:03;94294.88;;;8.56;100.00
8298;BME280;4187;42.778;23.242;2023-04-26T04:05:30;94310.69;;;8.64;100.00
8298;BME280;4187;42.778;23.242;2023-04-26T04:07:57;94335.53;;;8.70;100.00
8298;BME280;4187;42.778;23.242;2023-04-26T04:10:24;94327.31;;;8.65;100.00
8298;BME280;4187;42.778;23.242;2023-04-26T04:12:52;94334.63;;;8.53;100.00
8298;BME280;4187;42.778;23.242;2023-04-26T04:15:19;94330.63;;;9.91;100.00
8298;BME280;4187;42.778;23.242;2023-04-26T04:17:46;94295.47;;;10.71;100.00
8298;BME280;4187;42.778;23.242;2023-04-26T04:20:13;94352.31;;;11.36;100.00
8298;BME280;4187;42.778;23.242;2023-04-26T04:22:40;94364.78;;;12.35;100.00
8298;BME280;4187;42.778;23.242;2023-04-26T04:25:08;94369.31;;;13.30;100.00
8298;BME280;4187;42.778;23.242;2023-04-26T04:27:35;94376.97;;;13.84;100.00
8298;BME280;4187;42.778;23.242;2023-04-26T04:30:05;94347.69;;;13.77;100.00
8298;BME280;4187;42.778;23.242;2023-04-26T04:32:33;94372.09;;;13.51;100.00
8298;BME280;4187;42.778;23.242;2023-04-26T04:35:00;94364.91;;;12.93;100.00
8298;BME280;4187;42.778;23.242;2023-04-26T04:37:27;94367.38;;;12.43;100.00
8298;BME280;4187;42.778;23.242;2023-04-26T04:39:54;94364.06;;;11.95;100.00
8298;BME280;4187;42.778;23.242;2023-04-26T04:42:21;94360.09;;;11.69;100.00
8298;BME280;4187;42.778;23.242;2023-04-26T04:44:48;94357.25;;;11.39;100.00
8298;BME280;4187;42.778;23.242;2023-04-26T04:47:17;94358.84;;;11.18;100.00
8298;BME280;4187;42.778;23.242;2023-04-26T04:49:43;94355.72;;;11.06;100.00
8298;BME280;4187;42.778;23.242;2023-04-26T04:52:11;94360.56;;;10.95;100.00
8298;BME280;4187;42.778;23.242;2023-04-26T04:54:38;94361.69;;;10.92;100.00
8298;BME280;4187;42.778;23.242;2023-04-26T04:57:05;94363.53;;;10.92;100.00
8298;BME280;4187;42.778;23.242;2023-04-26T04:59:32;94364.84;;;10.96;100.00
8298;BME280;4187;42.778;23.242;2023-04-26T05:01:58;94342.78;;;10.80;100.00
8298;BME280;4187;42.778;23.242;2023-04-26T05:04:27;94360.69;;;11.01;100.00
8298;BME280;4187;42.778;23.242;2023-04-26T05:06:56;94356.41;;;11.08;100.00
8298;BME280;4187;42.778;23.242;2023-04-26T05:09:50;94360.19;;;11.06;100.00
8298;BME280;4187;42.778;23.242;2023-04-26T05:12:17;94360.56;;;11.03;100.00
8298;BME280;4187;42.778;23.242;2023-04-26T05:14:43;94354.44;;;11.02;100.00
8298;BME280;4187;42.778;23.242;2023-04-26T05:17:10;94359.38;;;11.05;100.00
8298;BME280;4187;42.778;23.242;2023-04-26T05:19:39;94359.16;;;11.15;100.00
8298;BME280;4187;42.778;23.242;2023-04-26T05:22:05;94357.38;;;11.15;100.00
8298;BME280;4187;42.778;23.242;2023-04-26T05:24:32;94360.84;;;11.16;100.00
8298;BME280;4187;42.778;23.242;2023-04-26T05:26:59;94358.53;;;11.13;100.00
8298;BME280;4187;42.778;23.242;2023-04-26T05:29:44;94361.00;;;11.06;100.00
8298;BME280;4187;42.778;23.242;2023-04-26T05:32:11;94363.81;;;11.13;100.00
8298;BME280;4187;42.778;23.242;2023-04-26T05:34:40;94355.69;;;11.14;100.00
8298;BME280;4187;42.778;23.242;2023-04-26T05:37:06;94361.31;;;11.11;100.00
8298;BME280;4187;42.778;23.242;2023-04-26T05:39:34;94364.94;;;11.18;100.00
8298;BME280;4187;42.778;23.242;2023-04-26T05:42:01;94347.44;;;11.17;100.00
8298;BME280;4187;42.778;23.242;2023-04-26T05:44:28;94367.38;;;11.28;100.00
8298;BME280;4187;42.778;23.242;2023-04-26T05:46:55;94368.00;;;11.38;100.00
8298;BME280;4187;42.778;23.242;2023-04-26T05:49:22;94376.22;;;11.51;100.00
8298;BME280;4187;42.778;23.242;2023-04-26T05:51:50;94384.25;;;11.58;100.00
8298;BME280;4187;42.778;23.242;2023-04-26T05:54:17;94384.88;;;11.60;100.00
8298;BME280;4187;42.778;23.242;2023-04-26T05:56:43;94393.94;;;11.65;100.00
8298;BME280;4187;42.778;23.242;2023-04-26T05:59:10;94390.16;;;11.68;100.00
8298;BME280;4187;42.778;23.242;2023-04-26T06:01:38;94384.19;;;11.66;100.00
8298;BME280;4187;42.778;23.242;2023-04-26T06:04:05;94395.28;;;11.69;100.00
8298;BME280;4187;42.778;23.242;2023-04-26T06:06:31;94392.97;;;11.66;100.00
8298;BME280;4187;42.778;23.242;2023-04-26T06:08:59;94396.25;;;11.76;100.00
8298;BME280;4187;42.778;23.242;2023-04-26T06:11:27;94402.00;;;11.80;100.00
8298;BME280;4187;42.778;23.242;2023-04-26T06:13:53;94404.84;;;11.78;100.00
8298;BME280;4187;42.778;23.242;2023-04-26T06:16:21;94383.03;;;11.68;100.00
8298;BME280;4187;42.778;23.242;2023-04-26T06:18:48;94399.47;;;11.94;100.00
8298;BME280;4187;42.778;23.242;2023-04-26T06:21:15;94395.69;;;12.12;100.00
8298;BME280;4187;42.778;23.242;2023-04-26T06:23:42;94404.69;;;12.25;100.00
8298;BME280;4187;42.778;23.242;2023-04-26T06:26:10;94407.47;;;12.32;100.00
8298;BME280;4187;42.778;23.242;2023-04-26T06:28:37;94394.41;;;12.30;100.00
8298;BME280;4187;42.778;23.242;2023-04-26T06:31:04;94399.28;;;12.41;100.00
8298;BME280;4187;42.778;23.242;2023-04-26T06:33:31;94408.88;;;12.42;100.00
8298;BME280;4187;42.778;23.242;2023-04-26T06:35:58;94401.84;;;12.35;100.00
8298;BME280;4187;42.778;23.242;2023-04-26T06:38:24;94401.47;;;12.38;100.00
8298;BME280;4187;42.778;23.242;2023-04-26T06:40:51;94403.69;;;12.49;100.00
8298;BME280;4187;42.778;23.242;2023-04-26T06:43:19;94399.00;;;12.59;100.00
8298;BME280;4187;42.778;23.242;2023-04-26T06:45:46;94392.69;;;12.60;100.00
8298;BME280;4187;42.778;23.242;2023-04-26T06:48:13;94390.66;;;12.47;100.00
8298;BME280;4187;42.778;23.242;2023-04-26T06:50:40;94411.56;;;12.57;100.00
8298;BME280;4187;42.778;23.242;2023-04-26T06:53:07;94409.94;;;12.56;100.00
8298;BME280;4187;42.778;23.242;2023-04-26T06:55:34;94413.56;;;12.55;100.00
8298;BME280;4187;42.778;23.242;2023-04-26T06:58:01;94404.50;;;12.49;100.00
8298;BME280;4187;42.778;23.242;2023-04-26T07:00:29;94403.63;;;12.57;100.00
8298;BME280;4187;42.778;23.242;2023-04-26T07:02:56;94400.19;;;12.56;100.00
8298;BME280;4187;42.778;23.242;2023-04-26T07:05:23;94399.44;;;12.63;100.00
8298;BME280;4187;42.778;23.242;2023-04-26T07:07:49;94407.38;;;12.63;100.00
8298;BME280;4187;42.778;23.242;2023-04-26T07:10:16;94410.16;;;12.69;100.00
8298;BME280;4187;42.778;23.242;2023-04-26T07:12:43;94407.69;;;12.68;100.00
8298;BME280;4187;42.778;23.242;2023-04-26T07:15:10;94415.72;;;12.74;100.00
8298;BME280;4187;42.778;23.242;2023-04-26T07:17:38;94413.84;;;12.83;100.00
8298;BME280;4187;42.778;23.242;2023-04-26T07:20:06;94403.03;;;12.70;100.00
8298;BME280;4187;42.778;23.242;2023-04-26T07:22:34;94407.47;;;13.06;100.00
8298;BME280;4187;42.778;23.242;2023-04-26T07:25:01;94420.59;;;13.08;100.00
8298;BME280;4187;42.778;23.242;2023-04-26T07:27:30;94421.31;;;13.16;100.00
8298;BME280;4187;42.778;23.242;2023-04-26T07:29:57;94429.09;;;13.18;100.00
8298;BME280;4187;42.778;23.242;2023-04-26T07:32:23;94419.75;;;13.22;100.00
8298;BME280;4187;42.778;23.242;2023-04-26T07:34:52;94421.16;;;13.33;100.00
8298;BME280;4187;42.778;23.242;2023-04-26T07:37:19;94424.34;;;13.43;100.00
8298;BME280;4187;42.778;23.242;2023-04-26T07:39:45;94434.75;;;13.44;100.00
8298;BME280;4187;42.778;23.242;2023-04-26T07:42:12;94424.00;;;13.46;100.00
8298;BME280;4187;42.778;23.242;2023-04-26T07:44:39;94436.50;;;13.37;100.00
8298;BME280;4187;42.778;23.242;2023-04-26T07:47:10;94438.41;;;13.29;100.00
8298;BME280;4187;42.778;23.242;2023-04-26T07:49:37;94414.88;;;12.96;100.00
8298;BME280;4187;42.778;23.242;2023-04-26T07:52:07;94440.28;;;13.05;100.00
8298;BME280;4187;42.778;23.242;2023-04-26T07:54:33;94445.47;;;12.99;100.00
8298;BME280;4187;42.778;23.242;2023-04-26T07:57:01;94444.19;;;12.95;100.00
8298;BME280;4187;42.778;23.242;2023-04-26T07:59:28;94448.38;;;12.89;100.00
8298;BME280;4187;42.778;23.242;2023-04-26T08:01:54;94432.50;;;12.89;100.00
8298;BME280;4187;42.778;23.242;2023-04-26T08:04:30;94443.88;;;13.12;100.00
8298;BME280;4187;42.778;23.242;2023-04-26T08:06:58;94439.25;;;13.29;100.00
8298;BME280;4187;42.778;23.242;2023-04-26T08:09:27;94435.69;;;13.37;100.00
8298;BME280;4187;42.778;23.242;2023-04-26T08:11:55;94436.06;;;13.48;100.00
8298;BME280;4187;42.778;23.242;2023-04-26T08:14:22;94445.00;;;13.62;100.00
8298;BME280;4187;42.778;23.242;2023-04-26T08:16:49;94439.16;;;13.81;100.00
8298;BME280;4187;42.778;23.242;2023-04-26T08:19:15;94441.22;;;13.86;100.00
8298;BME280;4187;42.778;23.242;2023-04-26T08:21:42;94435.09;;;13.85;100.00
8298;BME280;4187;42.778;23.242;2023-04-26T08:24:09;94434.28;;;13.85;100.00
8298;BME280;4187;42.778;23.242;2023-04-26T08:26:37;94438.38;;;14.02;100.00
8298;BME280;4187;42.778;23.242;2023-04-26T08:29:04;94441.66;;;14.04;100.00
8298;BME280;4187;42.778;23.242;2023-04-26T08:31:31;94429.78;;;14.00;100.00
8298;BME280;4187;42.778;23.242;2023-04-26T08:33:58;94438.34;;;14.16;100.00
8298;BME280;4187;42.778;23.242;2023-04-26T08:36:25;94427.91;;;14.51;100.00
8298;BME280;4187;42.778;23.242;2023-04-26T08:38:52;94437.03;;;14.84;100.00
8298;BME280;4187;42.778;23.242;2023-04-26T08:41:21;94433.03;;;14.94;100.00
8298;BME280;4187;42.778;23.242;2023-04-26T08:43:50;94409.91;;;14.95;100.00
8298;BME280;4187;42.778;23.242;2023-04-26T08:46:18;94438.41;;;15.29;100.00
8298;BME280;4187;42.778;23.242;2023-04-26T08:48:53;94439.91;;;15.38;99.69
8298;BME280;4187;42.778;23.242;2023-04-26T08:51:26;94433.63;;;15.45;98.87
8298;BME280;4187;42.778;23.242;2023-04-26T08:53:54;94436.59;;;15.57;99.83
8298;BME280;4187;42.778;23.242;2023-04-26T08:56:23;94428.16;;;15.53;98.55
8298;BME280;4187;42.778;23.242;2023-04-26T08:58:51;94439.09;;;15.65;95.73
8298;BME280;4187;42.778;23.242;2023-04-26T09:01:19;94431.63;;;15.88;97.88
8298;BME280;4187;42.778;23.242;2023-04-26T09:03:47;94431.69;;;16.01;95.06
8298;BME280;4187;42.778;23.242;2023-04-26T09:06:15;94443.09;;;15.95;95.24
8298;BME280;4187;42.778;23.242;2023-04-26T09:08:43;94434.16;;;16.03;92.90
8298;BME280;4187;42.778;23.242;2023-04-26T09:11:11;94442.50;;;15.93;95.73
8298;BME280;4187;42.778;23.242;2023-04-26T09:13:37;94441.22;;;15.83;96.16
8298;BME280;4187;42.778;23.242;2023-04-26T09:16:06;94409.91;;;15.85;97.23
8298;BME280;4187;42.778;23.242;2023-04-26T09:18:33;94428.19;;;16.01;92.35
8298;BME280;4187;42.778;23.242;2023-04-26T09:21:02;94452.84;;;16.23;92.50
8298;BME280;4187;42.778;23.242;2023-04-26T09:23:29;94451.84;;;16.24;89.51
8298;BME280;4187;42.778;23.242;2023-04-26T09:26:14;94459.97;;;16.09;89.56
8298;BME280;4187;42.778;23.242;2023-04-26T09:28:41;94446.88;;;16.07;90.81
8298;BME280;4187;42.778;23.242;2023-04-26T09:31:09;94449.75;;;16.12;91.04
8298;BME280;4187;42.778;23.242;2023-04-26T09:33:56;94449.13;;;16.10;91.17
8298;BME280;4187;42.778;23.242;2023-04-26T09:36:23;94452.53;;;15.98;90.56
8298;BME280;4187;42.778;23.242;2023-04-26T09:38:50;94448.09;;;16.05;91.38
8298;BME280;4187;42.778;23.242;2023-04-26T09:41:17;94446.66;;;16.02;91.46
8298;BME280;4187;42.778;23.242;2023-04-26T09:43:44;94448.50;;;16.08;87.62
8298;BME280;4187;42.778;23.242;2023-04-26T09:46:21;94410.94;;;15.84;88.32
8298;BME280;4187;42.778;23.242;2023-04-26T09:48:59;94453.50;;;15.84;88.26
8298;BME280;4187;42.778;23.242;2023-04-26T09:51:27;94439.41;;;15.90;86.62
8298;BME280;4187;42.778;23.242;2023-04-26T09:53:54;94440.28;;;15.97;86.54
8298;BME280;4187;42.778;23.242;2023-04-26T09:56:21;94435.00;;;16.10;87.59
8298;BME280;4187;42.778;23.242;2023-04-26T09:58:58;94429.25;;;16.06;84.08
8298;BME280;4187;42.778;23.242;2023-04-26T10:01:28;94405.69;;;16.03;85.94
8298;BME280;4187;42.778;23.242;2023-04-26T10:03:55;94438.53;;;16.24;83.72
8298;BME280;4187;42.778;23.242;2023-04-26T10:06:22;94418.47;;;16.28;84.23
8298;BME280;4187;42.778;23.242;2023-04-26T10:08:50;94436.75;;;16.50;85.00
8298;BME280;4187;42.778;23.242;2023-04-26T10:11:17;94435.00;;;16.70;84.11
8298;BME280;4187;42.778;23.242;2023-04-26T10:13:44;94388.03;;;16.63;81.88
8298;BME280;4187;42.778;23.242;2023-04-26T10:16:11;94430.53;;;16.97;81.52
8298;BME280;4187;42.778;23.242;2023-04-26T10:18:39;94429.69;;;17.10;80.86
8298;BME280;4187;42.778;23.242;2023-04-26T10:21:10;94425.59;;;17.27;79.71
8298;BME280;4187;42.778;23.242;2023-04-26T10:23:39;94404.28;;;17.27;79.86
8298;BME280;4187;42.778;23.242;2023-04-26T10:26:06;94418.19;;;17.42;80.54
8298;BME280;4187;42.778;23.242;2023-04-26T10:28:54;94422.69;;;17.42;77.68
8298;BME280;4187;42.778;23.242;2023-04-26T10:31:24;94388.44;;;17.45;81.90
8298;BME280;4187;42.778;23.242;2023-04-26T10:34:18;94420.94;;;18.06;80.33
8298;BME280;4187;42.778;23.242;2023-04-26T10:37:06;94415.41;;;18.08;76.89
8298;BME280;4187;42.778;23.242;2023-04-26T10:39:34;94419.09;;;18.07;76.71
8298;BME280;4187;42.778;23.242;2023-04-26T10:42:18;94420.75;;;18.01;79.11
8298;BME280;4187;42.778;23.242;2023-04-26T10:44:48;94417.66;;;18.04;76.28
8298;BME280;4187;42.778;23.242;2023-04-26T10:47:26;94418.91;;;17.95;77.86
8298;BME280;4187;42.778;23.242;2023-04-26T10:50:05;94411.72;;;18.02;82.82
8298;BME280;4187;42.778;23.242;2023-04-26T10:52:33;94425.25;;;18.07;74.12
8298;BME280;4187;42.778;23.242;2023-04-26T10:55:00;94419.09;;;18.07;74.20
8298;BME280;4187;42.778;23.242;2023-04-26T10:57:55;94421.16;;;18.05;76.48
8298;BME280;4187;42.778;23.242;2023-04-26T11:00:27;94410.66;;;18.10;78.31
8298;BME280;4187;42.778;23.242;2023-04-26T11:02:58;94408.59;;;18.12;74.25
8298;BME280;4187;42.778;23.242;2023-04-26T11:05:40;94399.22;;;17.96;75.44
8298;BME280;4187;42.778;23.242;2023-04-26T11:08:17;94397.97;;;17.99;77.47
8298;BME280;4187;42.778;23.242;2023-04-26T11:10:49;94410.00;;;18.21;75.90
8298;BME280;4187;42.778;23.242;2023-04-26T11:13:17;94410.84;;;18.15;75.95
8298;BME280;4187;42.778;23.242;2023-04-26T11:15:45;94395.09;;;18.00;77.51
8298;BME280;4187;42.778;23.242;2023-04-26T11:18:12;94381.75;;;17.93;75.92
8298;BME280;4187;42.778;23.242;2023-04-26T11:20:43;94371.78;;;17.69;75.88
8298;BME280;4187;42.778;23.242;2023-04-26T11:23:10;94419.34;;;17.92;76.91
8298;BME280;4187;42.778;23.242;2023-04-26T11:25:38;94405.97;;;18.05;77.27
8298;BME280;4187;42.778;23.242;2023-04-26T11:28:06;94412.69;;;18.14;73.42
8298;BME280;4187;42.778;23.242;2023-04-26T11:30:32;94411.53;;;17.97;75.54
8298;BME280;4187;42.778;23.242;2023-04-26T11:33:00;94402.66;;;18.10;74.82
8298;BME280;4187;42.778;23.242;2023-04-26T11:35:27;94405.81;;;18.38;76.50
8298;BME280;4187;42.778;23.242;2023-04-26T11:37:58;94409.84;;;18.47;74.41
8298;BME280;4187;42.778;23.242;2023-04-26T11:40:30;94398.25;;;18.28;74.26
8298;BME280;4187;42.778;23.242;2023-04-26T11:43:00;94413.91;;;18.18;75.10
8298;BME280;4187;42.778;23.242;2023-04-26T11:45:28;94418.88;;;18.08;75.32
8298;BME280;4187;42.778;23.242;2023-04-26T11:47:56;94410.06;;;18.01;75.82
8298;BME280;4187;42.778;23.242;2023-04-26T11:50:26;94390.25;;;17.77;74.45
8298;BME280;4187;42.778;23.242;2023-04-26T11:52:54;94402.38;;;17.60;74.18
8298;BME280;4187;42.778;23.242;2023-04-26T11:55:28;94407.94;;;17.19;75.46
8298;BME280;4187;42.778;23.242;2023-04-26T11:57:56;94409.22;;;16.97;78.35
8298;BME280;4187;42.778;23.242;2023-04-26T12:00:24;94407.78;;;17.08;79.80
8298;BME280;4187;42.778;23.242;2023-04-26T12:02:52;94372.09;;;17.02;76.79
8298;BME280;4187;42.778;23.242;2023-04-26T12:05:23;94406.72;;;17.35;79.16
8298;BME280;4187;42.778;23.242;2023-04-26T12:07:50;94369.16;;;17.37;77.40
8298;BME280;4187;42.778;23.242;2023-04-26T12:10:19;94409.75;;;17.71;76.43
8298;BME280;4187;42.778;23.242;2023-04-26T12:12:48;94406.50;;;17.56;76.30
8298;BME280;4187;42.778;23.242;2023-04-26T12:15:16;94385.81;;;17.06;75.94
8298;BME280;4187;42.778;23.242;2023-04-26T12:17:54;94416.16;;;17.18;74.94
8298;BME280;4187;42.778;23.242;2023-04-26T12:20:31;94419.44;;;17.20;76.30
8298;BME280;4187;42.778;23.242;2023-04-26T12:23:03;94419.44;;;17.20;76.13
8298;BME280;4187;42.778;23.242;2023-04-26T12:25:32;94390.16;;;17.00;75.14
8298;BME280;4187;42.778;23.242;2023-04-26T12:28:06;94412.28;;;17.14;75.76
8298;BME280;4187;42.778;23.242;2023-04-26T12:30:37;94402.03;;;17.04;76.65
8298;BME280;4187;42.778;23.242;2023-04-26T12:33:04;94401.59;;;16.88;76.38
8298;BME280;4187;42.778;23.242;2023-04-26T12:35:32;94399.75;;;17.01;78.00
8298;BME280;4187;42.778;23.242;2023-04-26T12:37:59;94405.09;;;17.01;76.12
8298;BME280;4187;42.778;23.242;2023-04-26T12:40:26;94390.53;;;17.04;76.32
8298;BME280;4187;42.778;23.242;2023-04-26T12:42:54;94403.47;;;16.94;75.94
8298;BME280;4187;42.778;23.242;2023-04-26T12:45:23;94410.44;;;16.95;74.52
8298;BME280;4187;42.778;23.242;2023-04-26T12:47:51;94399.56;;;16.83;76.91
8298;BME280;4187;42.778;23.242;2023-04-26T12:50:19;94338.84;;;16.46;77.47
8298;BME280;4187;42.778;23.242;2023-04-26T12:52:46;94404.28;;;16.81;76.36
8298;BME280;4187;42.778;23.242;2023-04-26T12:55:14;94402.63;;;16.67;78.17
8298;BME280;4187;42.778;23.242;2023-04-26T12:57:42;94395.16;;;16.49;76.93
8298;BME280;4187;42.778;23.242;2023-04-26T13:00:11;94400.53;;;16.56;78.99
8298;BME280;4187;42.778;23.242;2023-04-26T13:02:40;94387.56;;;16.33;76.98
8298;BME280;4187;42.778;23.242;2023-04-26T13:05:08;94410.75;;;16.46;76.92
8298;BME280;4187;42.778;23.242;2023-04-26T13:07:36;94397.84;;;16.43;77.30
8298;BME280;4187;42.778;23.242;2023-04-26T13:10:04;94401.28;;;16.37;75.88
8298;BME280;4187;42.778;23.242;2023-04-26T13:12:31;94407.19;;;16.19;76.68
8298;BME280;4187;42.778;23.242;2023-04-26T13:14:58;94399.22;;;16.19;77.62
8298;BME280;4187;42.778;23.242;2023-04-26T13:17:25;94392.06;;;16.26;78.18